createdAt,value
2023-02-18T00:01:14.449Z,14.08
2023-02-18T00:03:42.300Z,13.91
2023-02-18T00:06:16.970Z,13.81
2023-02-18T00:08:45.277Z,13.92
2023-02-18T00:11:13.314Z,13.76
2023-02-18T00:13:40.703Z,14.00
2023-02-18T00:16:11.326Z,13.95
2023-02-18T00:18:39.782Z,14.10
2023-02-18T00:21:08.250Z,13.91
2023-02-18T00:23:36.230Z,13.77
2023-02-18T00:26:07.618Z,13.85
2023-02-18T00:28:35.379Z,13.76
2023-02-18T00:31:13.149Z,13.76
2023-02-18T00:33:41.335Z,13.73
2023-02-18T00:36:11.549Z,13.76
2023-02-18T00:38:39.600Z,13.53
2023-02-18T00:41:07.005Z,13.73
2023-02-18T00:43:34.503Z,13.80
2023-02-18T00:46:03.256Z,13.69
2023-02-18T00:48:32.225Z,13.82
2023-02-18T00:51:01.184Z,13.70
2023-02-18T00:53:29.211Z,13.63
2023-02-18T00:55:57.725Z,13.84
2023-02-18T00:58:25.787Z,13.71
2023-02-18T01:00:54.039Z,13.83
2023-02-18T01:03:22.703Z,13.88
2023-02-18T01:05:50.671Z,13.77
2023-02-18T01:08:19.184Z,13.61
2023-02-18T01:10:48.552Z,13.90
2023-02-18T01:13:16.702Z,13.81
2023-02-18T01:15:46.447Z,13.68
2023-02-18T01:18:14.386Z,13.87
2023-02-18T01:20:43.383Z,13.67
2023-02-18T01:23:11.601Z,13.76
2023-02-18T01:25:39.371Z,13.77
2023-02-18T01:28:09.668Z,13.75
2023-02-18T01:30:37.103Z,13.79
2023-02-18T01:33:05.494Z,13.77
2023-02-18T01:35:33.573Z,13.85
2023-02-18T01:38:01.538Z,13.66
2023-02-18T01:40:30.398Z,13.64
2023-02-18T01:42:57.982Z,13.36
2023-02-18T01:45:34.789Z,13.21
2023-02-18T01:48:17.566Z,13.46
2023-02-18T01:50:49.194Z,13.44
2023-02-18T01:53:20.967Z,13.38
2023-02-18T01:55:49.158Z,13.58
2023-02-18T01:58:17.397Z,13.66
2023-02-18T02:00:46.527Z,13.36
2023-02-18T02:03:15.420Z,13.32
2023-02-18T02:05:44.300Z,13.23
2023-02-18T02:08:16.545Z,13.23
2023-02-18T02:10:59.534Z,13.32
2023-02-18T02:13:35.663Z,13.12
2023-02-18T02:16:37.406Z,13.08
2023-02-18T02:19:35.925Z,13.19
2023-02-18T02:22:26.189Z,13.34
2023-02-18T02:25:16.799Z,13.37
2023-02-18T02:27:53.444Z,13.43
2023-02-18T02:30:30.040Z,13.45
2023-02-18T02:33:06.141Z,13.24
2023-02-18T02:36:00.252Z,13.16
2023-02-18T02:38:39.517Z,13.27
2023-02-18T02:41:20.075Z,13.45
2023-02-18T02:44:07.909Z,13.36
2023-02-18T02:46:45.659Z,13.29
2023-02-18T02:49:40.027Z,13.14
2023-02-18T02:52:18.367Z,13.21
2023-02-18T02:54:46.332Z,13.19
2023-02-18T02:57:13.818Z,13.38
2023-02-18T02:59:58.515Z,13.66
2023-02-18T03:02:38.693Z,13.54
2023-02-18T03:05:33.878Z,13.46
2023-02-18T03:08:28.875Z,13.39
2023-02-18T03:11:05.453Z,13.09
2023-02-18T03:13:41.886Z,13.22
2023-02-18T03:16:26.109Z,13.52
2023-02-18T03:19:18.156Z,13.31
2023-02-18T03:21:50.403Z,13.15
2023-02-18T03:24:27.817Z,13.18
2023-02-18T03:27:10.176Z,13.09
2023-02-18T03:29:38.644Z,13.13
2023-02-18T03:32:08.471Z,13.03
2023-02-18T03:34:40.220Z,13.02
2023-02-18T03:37:09.386Z,13.11
2023-02-18T03:39:38.193Z,13.09
2023-02-18T03:42:05.928Z,13.34
2023-02-18T03:44:33.389Z,13.27
2023-02-18T03:47:01.132Z,13.24
2023-02-18T03:49:28.512Z,13.03
2023-02-18T03:51:56.111Z,13.00
2023-02-18T03:54:23.680Z,12.84
2023-02-18T03:56:51.108Z,12.57
2023-02-18T03:59:18.488Z,12.62
2023-02-18T04:01:45.929Z,12.53
2023-02-18T04:04:13.581Z,12.58
2023-02-18T04:06:41.021Z,12.71
2023-02-18T04:09:09.064Z,12.93
2023-02-18T04:11:40.817Z,12.79
2023-02-18T04:14:08.702Z,13.00
2023-02-18T04:16:36.173Z,13.10
2023-02-18T04:19:03.802Z,12.99
2023-02-18T04:21:31.359Z,12.85
2023-02-18T04:23:58.976Z,12.89
2023-02-18T04:26:26.479Z,12.56
2023-02-18T04:28:53.849Z,12.37
2023-02-18T04:31:21.350Z,12.39
2023-02-18T04:33:49.146Z,12.43
2023-02-18T04:36:17.431Z,12.48
2023-02-18T04:38:44.694Z,12.44
2023-02-18T04:41:12.854Z,12.27
2023-02-18T04:43:40.423Z,12.32
2023-02-18T04:46:08.257Z,12.25
2023-02-18T04:48:35.816Z,12.35
2023-02-18T04:51:03.613Z,12.33
2023-02-18T04:53:31.166Z,12.45
2023-02-18T04:55:59.442Z,12.64
2023-02-18T04:58:26.917Z,12.51
2023-02-18T05:00:54.391Z,12.33
2023-02-18T05:03:21.754Z,12.51
2023-02-18T05:05:49.270Z,12.57
2023-02-18T05:08:16.763Z,12.63
2023-02-18T05:10:44.032Z,12.56
2023-02-18T05:13:11.385Z,12.41
2023-02-18T05:15:39.027Z,12.32
2023-02-18T05:18:07.388Z,12.17
2023-02-18T05:20:35.146Z,12.50
2023-02-18T05:23:02.754Z,12.51
2023-02-18T05:25:30.142Z,12.30
2023-02-18T05:27:57.633Z,12.46
2023-02-18T05:30:25.268Z,12.22
2023-02-18T05:32:52.687Z,12.35
2023-02-18T05:35:20.272Z,12.53
2023-02-18T05:37:47.849Z,12.35
2023-02-18T05:40:15.288Z,12.60
2023-02-18T05:42:42.663Z,12.46
2023-02-18T05:45:10.322Z,12.26
2023-02-18T05:47:37.885Z,12.15
2023-02-18T05:50:06.561Z,12.29
2023-02-18T05:52:34.157Z,12.48
2023-02-18T05:55:01.500Z,12.48
2023-02-18T05:57:29.469Z,12.31
2023-02-18T05:59:57.908Z,12.21
2023-02-18T06:02:26.320Z,12.14
2023-02-18T06:04:53.671Z,12.19
2023-02-18T06:07:21.116Z,12.24
2023-02-18T06:09:49.220Z,12.17
2023-02-18T06:12:17.078Z,12.57
2023-02-18T06:14:44.520Z,12.43
2023-02-18T06:17:13.199Z,12.34
2023-02-18T06:19:41.037Z,12.08
2023-02-18T06:22:08.581Z,11.97
2023-02-18T06:24:35.825Z,12.17
2023-02-18T06:27:04.101Z,12.20
2023-02-18T06:29:32.079Z,12.38
2023-02-18T06:32:00.151Z,12.20
2023-02-18T06:34:28.341Z,12.28
2023-02-18T06:36:55.774Z,12.39
2023-02-18T06:39:23.517Z,12.35
2023-02-18T06:41:50.965Z,12.55
2023-02-18T06:44:18.268Z,12.70
2023-02-18T06:46:45.797Z,12.59
2023-02-18T06:49:13.245Z,12.61
2023-02-18T06:51:42.495Z,12.65
2023-02-18T06:54:09.884Z,12.63
2023-02-18T06:56:37.198Z,12.71
2023-02-18T06:59:04.830Z,12.79
2023-02-18T07:01:32.171Z,12.64
2023-02-18T07:03:59.954Z,12.60
2023-02-18T07:06:27.268Z,12.38
2023-02-18T07:08:54.673Z,12.31
2023-02-18T07:11:22.287Z,12.57
2023-02-18T07:13:50.143Z,12.29
2023-02-18T07:16:17.581Z,12.43
2023-02-18T07:18:46.140Z,12.42
2023-02-18T07:21:13.582Z,12.34
2023-02-18T07:23:41.364Z,12.27
2023-02-18T07:26:11.344Z,12.32
2023-02-18T07:28:38.866Z,12.23
2023-02-18T07:31:06.804Z,12.10
2023-02-18T07:33:34.411Z,12.31
2023-02-18T07:36:03.129Z,12.44
2023-02-18T07:38:30.885Z,12.55
2023-02-18T07:40:59.288Z,12.50
2023-02-18T07:43:26.786Z,12.83
2023-02-18T07:45:55.122Z,12.53
2023-02-18T07:48:22.437Z,12.46
2023-02-18T07:50:49.859Z,12.52
2023-02-18T07:53:17.338Z,12.65
2023-02-18T07:55:50.823Z,12.65
2023-02-18T07:58:27.289Z,12.58
2023-02-18T08:00:55.142Z,12.63
2023-02-18T08:03:25.004Z,12.65
2023-02-18T08:05:52.717Z,12.68
2023-02-18T08:08:26.182Z,12.83
2023-02-18T08:10:55.520Z,12.86
2023-02-18T08:13:22.884Z,12.61
2023-02-18T08:15:50.482Z,12.48
2023-02-18T08:18:20.617Z,12.50
2023-02-18T08:20:49.315Z,12.64
2023-02-18T08:23:17.187Z,12.65
2023-02-18T08:25:50.527Z,12.63
2023-02-18T08:28:19.043Z,12.63
2023-02-18T08:30:51.115Z,12.73
2023-02-18T08:33:19.313Z,12.65
2023-02-18T08:35:47.592Z,12.73
2023-02-18T08:38:15.164Z,12.62
2023-02-18T08:40:42.885Z,12.78
2023-02-18T08:43:10.942Z,12.70
2023-02-18T08:45:39.471Z,12.59
2023-02-18T08:48:18.157Z,12.61
2023-02-18T08:50:48.270Z,12.50
2023-02-18T08:53:16.153Z,12.92
2023-02-18T08:55:44.027Z,13.03
2023-02-18T08:58:11.742Z,12.54
2023-02-18T09:00:40.269Z,12.65
2023-02-18T09:03:08.065Z,12.69
2023-02-18T09:05:35.465Z,12.24
2023-02-18T09:08:02.922Z,12.08
2023-02-18T09:10:30.186Z,12.28
2023-02-18T09:12:57.540Z,12.60
2023-02-18T09:15:25.463Z,12.50
2023-02-18T09:17:54.006Z,12.54
2023-02-18T09:20:21.510Z,12.61
2023-02-18T09:22:48.980Z,12.34
2023-02-18T09:25:16.421Z,12.80
2023-02-18T09:27:44.007Z,13.03
2023-02-18T09:30:12.103Z,12.70
2023-02-18T09:32:39.780Z,12.63
2023-02-18T09:35:07.586Z,12.56
2023-02-18T09:37:35.016Z,12.45
2023-02-18T09:40:02.375Z,12.48
2023-02-18T09:42:32.982Z,12.56
2023-02-18T09:45:04.581Z,12.40
2023-02-18T09:47:37.429Z,12.62
2023-02-18T09:50:09.361Z,12.28
2023-02-18T09:52:38.576Z,12.28
2023-02-18T09:55:30.034Z,12.32
2023-02-18T09:58:01.370Z,12.50
2023-02-18T10:00:36.995Z,12.50
2023-02-18T10:03:08.168Z,12.73
2023-02-18T10:05:36.590Z,12.87
2023-02-18T10:08:08.378Z,13.06
2023-02-18T10:10:42.622Z,12.80
2023-02-18T10:13:21.885Z,12.83
2023-02-18T10:15:51.274Z,12.95
2023-02-18T10:18:27.727Z,13.33
2023-02-18T10:21:05.296Z,13.35
2023-02-18T10:23:42.286Z,12.99
2023-02-18T10:26:15.787Z,12.76
2023-02-18T10:28:43.658Z,12.83
2023-02-18T10:31:15.842Z,12.54
2023-02-18T10:33:48.283Z,12.68
2023-02-18T10:36:28.914Z,12.92
2023-02-18T10:38:59.097Z,13.03
2023-02-18T10:41:29.689Z,13.02
2023-02-18T10:44:19.194Z,13.21
2023-02-18T10:47:06.584Z,13.13
2023-02-18T10:49:40.117Z,12.52
2023-02-18T10:52:15.645Z,12.45
2023-02-18T10:55:09.552Z,12.67
2023-02-18T10:57:47.306Z,12.61
2023-02-18T11:00:14.648Z,12.68
2023-02-18T11:02:42.629Z,12.91
2023-02-18T11:05:28.747Z,12.73
2023-02-18T11:07:59.171Z,12.40
2023-02-18T11:10:31.571Z,12.48
2023-02-18T11:13:02.416Z,12.89
2023-02-18T11:15:30.217Z,12.55
2023-02-18T11:18:13.089Z,12.49
2023-02-18T11:20:41.248Z,12.37
2023-02-18T11:23:18.151Z,12.50
2023-02-18T11:26:00.401Z,12.69
2023-02-18T11:28:45.726Z,12.94
2023-02-18T11:31:22.911Z,12.65
2023-02-18T11:33:57.169Z,12.60
2023-02-18T11:36:33.383Z,12.66
2023-02-18T11:39:07.580Z,12.31
2023-02-18T11:41:40.738Z,12.57
2023-02-18T11:44:31.707Z,12.48
2023-02-18T11:47:15.045Z,12.26
2023-02-18T11:49:44.999Z,12.68
2023-02-18T11:52:22.616Z,12.85
2023-02-18T11:55:22.386Z,12.93
2023-02-18T11:57:53.220Z,13.03
2023-02-18T12:00:43.690Z,13.23
2023-02-18T12:03:34.720Z,12.83
2023-02-18T12:06:06.264Z,13.02
2023-02-18T12:08:38.598Z,13.09
2023-02-18T12:11:13.656Z,12.84
2023-02-18T12:13:51.589Z,12.73
2023-02-18T12:16:45.489Z,12.65
2023-02-18T12:19:25.376Z,12.66
2023-02-18T12:22:08.562Z,12.67
2023-02-18T12:24:42.094Z,13.05
2023-02-18T12:27:46.001Z,12.98
2023-02-18T12:30:22.480Z,12.95
2023-02-18T12:33:12.565Z,12.99
2023-02-18T12:36:15.016Z,12.87
2023-02-18T12:39:14.779Z,13.13
2023-02-18T12:42:08.152Z,13.11
2023-02-18T12:44:55.335Z,13.14
2023-02-18T12:47:44.629Z,13.26
2023-02-18T12:50:21.074Z,12.87
2023-02-18T12:52:56.640Z,12.73
2023-02-18T12:55:39.278Z,12.63
2023-02-18T12:58:21.626Z,12.80
2023-02-18T13:01:01.178Z,13.04
2023-02-18T13:04:03.982Z,13.52
2023-02-18T13:07:07.968Z,13.33
2023-02-18T13:09:58.052Z,13.30
2023-02-18T13:12:32.807Z,13.29
2023-02-18T13:15:06.281Z,13.53
2023-02-18T13:17:36.858Z,13.55
2023-02-18T13:20:26.305Z,13.55
2023-02-18T13:22:54.077Z,13.49
2023-02-18T13:25:22.151Z,13.52
2023-02-18T13:28:42.123Z,13.98
2023-02-18T13:31:37.425Z,13.54
2023-02-18T13:34:08.066Z,13.37
2023-02-18T13:36:47.303Z,13.17
2023-02-18T13:39:20.584Z,13.02
2023-02-18T13:41:50.659Z,12.92
2023-02-18T13:44:20.917Z,13.03
2023-02-18T13:46:49.659Z,12.96
2023-02-18T13:49:22.783Z,12.97
2023-02-18T13:51:51.537Z,13.04
2023-02-18T13:54:24.843Z,13.18
2023-02-18T13:57:03.040Z,13.25
2023-02-18T13:59:42.040Z,13.30
2023-02-18T14:02:21.736Z,13.53
2023-02-18T14:04:51.954Z,13.49
2023-02-18T14:07:36.011Z,13.58
2023-02-18T14:10:27.456Z,13.39
2023-02-18T14:13:20.959Z,13.50
2023-02-18T14:15:57.106Z,13.25
2023-02-18T14:18:32.198Z,13.21
2023-02-18T14:21:05.667Z,13.27
2023-02-18T14:23:43.612Z,13.36
2023-02-18T14:26:14.097Z,13.33
2023-02-18T14:28:45.520Z,13.43
2023-02-18T14:31:13.683Z,13.31
2023-02-18T14:33:44.647Z,13.42
2023-02-18T14:36:15.237Z,13.62
2023-02-18T14:39:09.249Z,13.20
2023-02-18T14:41:42.868Z,13.32
2023-02-18T14:44:47.678Z,13.26
2023-02-18T14:47:23.012Z,13.27
2023-02-18T14:49:53.609Z,13.32
2023-02-18T14:52:33.759Z,12.97
2023-02-18T14:55:01.530Z,12.92
2023-02-18T14:57:53.582Z,13.05
2023-02-18T15:00:26.226Z,13.27
2023-02-18T15:02:55.137Z,13.66
2023-02-18T15:05:25.318Z,13.15
2023-02-18T15:07:55.619Z,13.34
2023-02-18T15:10:27.590Z,13.61
2023-02-18T15:12:55.024Z,13.49
2023-02-18T15:15:22.675Z,13.80
2023-02-18T15:17:50.597Z,14.06
2023-02-18T15:20:18.033Z,14.07
2023-02-18T15:22:45.619Z,13.97
2023-02-18T15:25:13.911Z,14.26
2023-02-18T15:27:44.638Z,13.95
2023-02-18T15:30:29.833Z,13.63
2023-02-18T15:32:59.122Z,13.68
2023-02-18T15:35:30.119Z,13.93
2023-02-18T15:37:59.656Z,13.78
2023-02-18T15:40:31.158Z,13.82
2023-02-18T15:43:01.048Z,13.97
2023-02-18T15:45:39.308Z,13.96
2023-02-18T15:48:06.916Z,13.84
2023-02-18T15:50:45.383Z,13.76
2023-02-18T15:53:16.258Z,13.72
2023-02-18T15:55:46.802Z,14.05
2023-02-18T15:58:31.118Z,14.10
2023-02-18T16:01:01.826Z,13.83
2023-02-18T16:03:31.650Z,13.89
2023-02-18T16:06:25.537Z,13.78
2023-02-18T16:09:02.726Z,13.80
2023-02-18T16:11:35.148Z,13.74
2023-02-18T16:14:02.944Z,13.73
2023-02-18T16:16:33.782Z,13.80
2023-02-18T16:19:01.501Z,14.18
2023-02-18T16:21:40.629Z,14.15
2023-02-18T16:24:41.033Z,13.98
2023-02-18T16:27:16.158Z,14.01
2023-02-18T16:29:45.745Z,14.00
2023-02-18T16:32:18.439Z,13.79
2023-02-18T16:34:48.857Z,13.72
2023-02-18T16:37:35.102Z,13.70
2023-02-18T16:40:05.571Z,13.55
2023-02-18T16:42:33.581Z,13.60
2023-02-18T16:45:03.865Z,13.62
2023-02-18T16:47:31.226Z,13.61
2023-02-18T16:49:59.639Z,13.76
2023-02-18T16:52:30.284Z,13.98
2023-02-18T16:55:01.273Z,14.01
2023-02-18T16:57:34.246Z,14.02
2023-02-18T17:00:01.946Z,14.09
2023-02-18T17:02:30.574Z,13.86
2023-02-18T17:04:59.620Z,13.66
2023-02-18T17:07:27.475Z,13.73
2023-02-18T17:09:54.794Z,13.62
2023-02-18T17:12:22.423Z,13.77
2023-02-18T17:14:49.886Z,13.78
2023-02-18T17:17:22.624Z,13.64
2023-02-18T17:19:50.343Z,13.73
2023-02-18T17:22:18.095Z,13.89
2023-02-18T17:24:45.702Z,13.68
2023-02-18T17:27:13.261Z,13.67
2023-02-18T17:29:40.821Z,13.43
2023-02-18T17:32:08.872Z,13.28
2023-02-18T17:34:41.294Z,13.43
2023-02-18T17:37:14.027Z,13.70
2023-02-18T17:39:44.383Z,13.66
2023-02-18T17:42:11.877Z,13.51
2023-02-18T17:44:40.568Z,13.53
2023-02-18T17:47:07.977Z,13.57
2023-02-18T17:49:35.395Z,13.34
2023-02-18T17:52:02.841Z,13.27
2023-02-18T17:54:30.329Z,13.10
2023-02-18T17:56:57.818Z,13.03
2023-02-18T17:59:28.498Z,12.91
2023-02-18T18:01:55.945Z,13.15
2023-02-18T18:04:26.115Z,13.24
2023-02-18T18:06:59.865Z,13.38
2023-02-18T18:09:27.465Z,13.13
2023-02-18T18:11:56.982Z,13.01
2023-02-18T18:14:24.577Z,12.93
2023-02-18T18:16:52.170Z,13.05
2023-02-18T18:19:19.581Z,13.04
2023-02-18T18:21:52.599Z,13.28
2023-02-18T18:24:22.925Z,13.20
2023-02-18T18:26:50.436Z,12.98
2023-02-18T18:29:17.980Z,13.02
2023-02-18T18:31:45.474Z,12.97
2023-02-18T18:34:16.750Z,13.13
2023-02-18T18:36:44.520Z,13.20
2023-02-18T18:39:16.870Z,13.31
2023-02-18T18:41:44.362Z,13.41
2023-02-18T18:44:12.167Z,13.27
2023-02-18T18:46:39.671Z,13.31
2023-02-18T18:49:07.016Z,13.25
2023-02-18T18:51:34.382Z,13.10
2023-02-18T18:54:01.794Z,12.83
2023-02-18T18:56:29.651Z,12.78
2023-02-18T18:58:57.348Z,13.26
2023-02-18T19:01:27.507Z,12.93
2023-02-18T19:03:55.316Z,12.77
2023-02-18T19:06:22.878Z,12.82
2023-02-18T19:08:50.381Z,12.59
2023-02-18T19:11:18.109Z,12.55
2023-02-18T19:13:45.982Z,12.76
2023-02-18T19:16:35.102Z,12.68
2023-02-18T19:19:06.006Z,12.66
2023-02-18T19:21:33.695Z,12.78
2023-02-18T19:24:01.160Z,12.77
2023-02-18T19:26:28.435Z,12.58
2023-02-18T19:28:55.809Z,13.03
2023-02-18T19:31:24.496Z,12.87
2023-02-18T19:33:52.327Z,12.63
2023-02-18T19:36:19.808Z,12.68
2023-02-18T19:38:48.214Z,12.64
2023-02-18T19:41:17.103Z,12.58
2023-02-18T19:43:46.596Z,12.63
2023-02-18T19:46:16.610Z,12.90
2023-02-18T19:48:49.316Z,12.68
2023-02-18T19:51:17.038Z,12.85
2023-02-18T19:53:44.604Z,12.69
2023-02-18T19:56:12.348Z,12.69
2023-02-18T19:58:40.431Z,12.67
2023-02-18T20:01:16.155Z,12.61
2023-02-18T20:03:44.122Z,12.78
2023-02-18T20:06:21.054Z,12.67
2023-02-18T20:08:48.610Z,12.80
2023-02-18T20:11:16.444Z,12.46
2023-02-18T20:13:44.293Z,12.60
2023-02-18T20:16:12.146Z,12.42
2023-02-18T20:18:39.766Z,12.48
2023-02-18T20:21:10.844Z,12.67
2023-02-18T20:23:38.764Z,12.82
2023-02-18T20:26:10.111Z,12.73
2023-02-18T20:28:37.473Z,12.53
2023-02-18T20:31:11.364Z,12.43
2023-02-18T20:33:39.707Z,12.58
2023-02-18T20:36:08.639Z,12.64
2023-02-18T20:38:37.072Z,12.65
2023-02-18T20:41:14.672Z,12.40
2023-02-18T20:43:42.344Z,12.85
2023-02-18T20:46:12.345Z,12.96
2023-02-18T20:48:40.068Z,13.12
2023-02-18T20:51:13.680Z,12.81
2023-02-18T20:53:42.382Z,12.64
2023-02-18T20:56:10.069Z,12.52
2023-02-18T20:58:38.231Z,12.64
2023-02-18T21:01:11.264Z,12.58
2023-02-18T21:03:39.637Z,12.71
2023-02-18T21:06:10.021Z,12.74
2023-02-18T21:08:40.340Z,12.77
2023-02-18T21:11:11.489Z,12.63
2023-02-18T21:13:39.104Z,12.60
2023-02-18T21:16:07.344Z,12.29
2023-02-18T21:18:34.894Z,12.51
2023-02-18T21:21:03.949Z,12.83
2023-02-18T21:23:31.401Z,12.57
2023-02-18T21:26:12.895Z,12.51
2023-02-18T21:28:40.572Z,12.80
2023-02-18T21:31:18.077Z,12.68
2023-02-18T21:33:45.700Z,12.78
2023-02-18T21:36:14.288Z,12.55
2023-02-18T21:38:44.655Z,12.59
2023-02-18T21:41:12.863Z,12.58
2023-02-18T21:43:40.455Z,12.66
2023-02-18T21:46:15.822Z,12.70
2023-02-18T21:49:02.370Z,12.70
2023-02-18T21:51:53.551Z,12.51
2023-02-18T21:54:24.198Z,12.30
2023-02-18T21:56:51.762Z,12.74
2023-02-18T21:59:20.573Z,12.60
2023-02-18T22:01:48.575Z,12.58
2023-02-18T22:04:16.409Z,12.73
2023-02-18T22:06:43.757Z,12.53
2023-02-18T22:09:11.567Z,12.51
2023-02-18T22:11:42.055Z,12.54
2023-02-18T22:14:13.877Z,12.51
2023-02-18T22:16:42.024Z,12.59
2023-02-18T22:19:11.166Z,12.79
2023-02-18T22:21:38.649Z,12.66
2023-02-18T22:24:06.863Z,12.96
2023-02-18T22:26:34.468Z,13.16
2023-02-18T22:29:02.052Z,13.07
2023-02-18T22:31:31.405Z,12.93
2023-02-18T22:33:59.851Z,13.07
2023-02-18T22:36:28.548Z,13.07
2023-02-18T22:38:56.465Z,12.85
2023-02-18T22:41:24.693Z,12.75
2023-02-18T22:43:56.703Z,12.81
2023-02-18T22:46:24.618Z,12.74
2023-02-18T22:48:53.470Z,12.83
2023-02-18T22:51:29.265Z,12.73
2023-02-18T22:53:58.064Z,12.76
2023-02-18T22:56:27.366Z,12.60
2023-02-18T22:58:55.875Z,12.50
2023-02-18T23:01:25.024Z,12.45
2023-02-18T23:03:53.543Z,12.70
2023-02-18T23:06:21.890Z,12.72
2023-02-18T23:08:49.774Z,12.48
2023-02-18T23:11:19.211Z,12.63
2023-02-18T23:14:07.655Z,12.57
2023-02-18T23:16:56.692Z,12.44
2023-02-18T23:19:25.855Z,12.41
2023-02-18T23:21:53.297Z,12.46
2023-02-18T23:24:21.331Z,12.20
2023-02-18T23:26:49.111Z,12.12
2023-02-18T23:29:17.036Z,12.13
2023-02-18T23:31:44.634Z,12.22
2023-02-18T23:34:14.479Z,12.45
2023-02-18T23:36:43.295Z,12.12
2023-02-18T23:39:13.384Z,12.21
2023-02-18T23:41:40.768Z,12.25
2023-02-18T23:44:11.273Z,12.45
2023-02-18T23:46:39.518Z,12.32
2023-02-18T23:49:07.277Z,12.36
2023-02-18T23:51:34.761Z,12.04
2023-02-18T23:54:03.525Z,12.13
2023-02-18T23:56:31.935Z,12.40
2023-02-18T23:59:01.356Z,11.97
